createdAt,value
2023-04-29T00:01:18.204Z,16.00
2023-04-29T00:03:46.126Z,19.00
2023-04-29T00:06:15.436Z,32.00
2023-04-29T00:08:43.205Z,23.00
2023-04-29T00:11:11.588Z,22.00
2023-04-29T00:13:42.042Z,19.67
2023-04-29T00:16:12.188Z,17.50
2023-04-29T00:18:40.109Z,22.00
2023-04-29T00:21:09.958Z,17.00
2023-04-29T00:23:37.748Z,17.00
2023-04-29T00:26:05.525Z,19.00
2023-04-29T00:28:32.477Z,18.00
2023-04-29T00:30:59.341Z,19.50
2023-04-29T00:33:27.467Z,16.00
2023-04-29T00:35:55.191Z,19.67
2023-04-29T00:38:22.914Z,24.33
2023-04-29T00:40:51.097Z,17.67
2023-04-29T00:43:18.772Z,14.67
2023-04-29T00:45:47.174Z,16.00
2023-04-29T00:48:16.024Z,16.00
2023-04-29T00:50:44.257Z,18.00
2023-04-29T00:53:13.099Z,18.00
2023-04-29T00:55:43.985Z,14.33
2023-04-29T00:58:12.486Z,16.33
2023-04-29T01:00:39.664Z,19.00
2023-04-29T01:03:06.648Z,21.00
2023-04-29T01:05:34.630Z,19.33
2023-04-29T01:08:21.240Z,16.67
2023-04-29T01:10:53.344Z,20.67
2023-04-29T01:13:37.159Z,18.00
2023-04-29T01:16:13.448Z,14.83
2023-04-29T01:18:49.989Z,16.00
2023-04-29T01:21:22.409Z,15.83
2023-04-29T01:23:56.156Z,15.00
2023-04-29T01:26:26.273Z,14.80
2023-04-29T01:28:59.073Z,9.50
2023-04-29T01:31:36.890Z,12.00
2023-04-29T01:34:09.732Z,16.00
2023-04-29T01:36:54.135Z,19.33
2023-04-29T01:39:41.396Z,16.33
2023-04-29T01:42:24.009Z,17.00
2023-04-29T01:44:55.336Z,20.33
2023-04-29T01:47:24.646Z,18.00
2023-04-29T01:49:52.678Z,12.00
2023-04-29T01:52:19.854Z,16.00
2023-04-29T01:54:47.728Z,16.33
2023-04-29T01:57:15.518Z,20.50
2023-04-29T01:59:43.188Z,19.00
2023-04-29T02:02:10.823Z,14.33
2023-04-29T02:04:40.461Z,17.83
2023-04-29T02:07:08.165Z,20.00
2023-04-29T02:09:36.548Z,17.33
2023-04-29T02:12:04.834Z,20.00
2023-04-29T02:14:31.794Z,27.00
2023-04-29T02:16:59.607Z,19.33
2023-04-29T02:19:26.776Z,19.00
2023-04-29T02:21:53.706Z,21.50
2023-04-29T02:24:20.567Z,20.00
2023-04-29T02:26:48.356Z,20.00
2023-04-29T02:29:16.836Z,18.00
2023-04-29T02:31:44.491Z,16.67
2023-04-29T02:34:12.272Z,17.33
2023-04-29T02:36:40.080Z,15.33
2023-04-29T02:39:07.874Z,18.33
2023-04-29T02:41:34.756Z,19.00
2023-04-29T02:44:02.653Z,19.00
2023-04-29T02:46:30.423Z,14.00
2023-04-29T02:48:58.111Z,19.67
2023-04-29T02:51:25.809Z,19.00
2023-04-29T02:53:52.721Z,20.00
2023-04-29T02:56:20.478Z,25.50
2023-04-29T02:58:48.275Z,28.00
2023-04-29T03:01:15.204Z,20.50
2023-04-29T03:03:43.195Z,21.67
2023-04-29T03:06:10.253Z,23.00
2023-04-29T03:08:37.980Z,20.00
2023-04-29T03:11:05.943Z,24.33
2023-04-29T03:13:33.676Z,27.00
2023-04-29T03:16:01.614Z,24.00
2023-04-29T03:18:29.390Z,24.00
2023-04-29T03:20:56.178Z,27.50
2023-04-29T03:23:23.192Z,23.50
2023-04-29T03:25:50.176Z,21.00
2023-04-29T03:28:18.120Z,22.50
2023-04-29T03:30:45.961Z,29.00
2023-04-29T03:33:13.823Z,28.50
2023-04-29T03:35:41.904Z,27.67
2023-04-29T03:38:08.797Z,24.00
2023-04-29T03:40:37.052Z,26.50
2023-04-29T03:43:07.059Z,24.00
2023-04-29T03:45:35.614Z,27.00
2023-04-29T03:48:03.732Z,28.00
2023-04-29T03:50:32.108Z,25.00
2023-04-29T03:53:00.014Z,28.50
2023-04-29T03:55:28.059Z,32.33
2023-04-29T03:57:56.629Z,33.00
2023-04-29T04:00:26.637Z,34.00
2023-04-29T04:02:54.778Z,24.00
2023-04-29T04:05:25.301Z,28.00
2023-04-29T04:07:53.385Z,30.50
2023-04-29T04:10:20.870Z,24.50
2023-04-29T04:12:48.660Z,28.00
2023-04-29T04:15:17.239Z,24.50
2023-04-29T04:17:44.256Z,25.00
2023-04-29T04:20:11.835Z,25.50
2023-04-29T04:22:39.724Z,27.50
2023-04-29T04:25:08.629Z,32.50
2023-04-29T04:27:35.734Z,31.00
2023-04-29T04:30:03.757Z,29.00
2023-04-29T04:32:30.723Z,25.50
2023-04-29T04:34:58.729Z,24.33
2023-04-29T04:37:25.646Z,28.50
2023-04-29T04:39:53.677Z,25.00
2023-04-29T04:42:23.057Z,22.33
2023-04-29T04:44:49.935Z,22.50
2023-04-29T04:47:16.798Z,33.00
2023-04-29T04:49:44.762Z,25.00
2023-04-29T04:52:12.656Z,29.33
2023-04-29T04:54:39.542Z,29.00
2023-04-29T04:57:07.376Z,25.50
2023-04-29T04:59:34.496Z,20.50
2023-04-29T05:02:01.588Z,27.00
2023-04-29T05:04:29.666Z,29.00
2023-04-29T05:06:57.585Z,26.00
2023-04-29T05:09:26.941Z,24.00
2023-04-29T05:11:54.455Z,25.00
2023-04-29T05:14:21.505Z,24.00
2023-04-29T05:16:49.657Z,26.00
2023-04-29T05:19:17.461Z,28.50
2023-04-29T05:21:45.577Z,25.00
2023-04-29T05:24:12.652Z,28.50
2023-04-29T05:26:39.608Z,25.00
2023-04-29T05:29:06.579Z,22.00
2023-04-29T05:31:33.678Z,23.50
2023-04-29T05:34:00.586Z,22.00
2023-04-29T05:36:28.195Z,23.50
2023-04-29T05:38:56.051Z,24.00
2023-04-29T05:41:25.094Z,19.00
2023-04-29T05:43:53.005Z,21.50
2023-04-29T05:46:20.830Z,25.00
2023-04-29T05:48:49.608Z,25.00
2023-04-29T05:51:17.437Z,26.33
2023-04-29T05:53:45.301Z,27.00
2023-04-29T05:56:13.240Z,28.00
2023-04-29T05:58:40.193Z,24.50
2023-04-29T06:01:08.090Z,24.33
2023-04-29T06:03:36.103Z,26.50
2023-04-29T06:06:04.595Z,23.00
2023-04-29T06:08:31.747Z,22.00
2023-04-29T06:10:59.812Z,21.67
2023-04-29T06:13:27.751Z,23.00
2023-04-29T06:15:56.486Z,23.00
2023-04-29T06:18:24.469Z,21.00
2023-04-29T06:20:51.469Z,18.00
2023-04-29T06:23:19.152Z,15.67
2023-04-29T06:25:46.207Z,22.00
2023-04-29T06:28:14.000Z,23.00
2023-04-29T06:30:40.915Z,24.00
2023-04-29T06:33:08.773Z,22.33
2023-04-29T06:35:40.431Z,18.00
2023-04-29T06:38:11.052Z,23.00
2023-04-29T06:40:38.036Z,21.50
2023-04-29T06:43:06.561Z,22.67
2023-04-29T06:45:34.420Z,20.50
2023-04-29T06:48:06.178Z,23.00
2023-04-29T06:50:35.250Z,19.00
2023-04-29T06:53:02.516Z,24.50
2023-04-29T06:55:30.522Z,18.50
2023-04-29T06:58:00.296Z,19.33
2023-04-29T07:00:29.155Z,18.00
2023-04-29T07:02:57.423Z,17.33
2023-04-29T07:05:25.440Z,15.00
2023-04-29T07:07:53.245Z,17.67
2023-04-29T07:10:42.044Z,20.00
2023-04-29T07:13:08.859Z,23.00
2023-04-29T07:15:36.757Z,21.50
2023-04-29T07:18:06.826Z,12.00
2023-04-29T07:20:37.198Z,16.67
2023-04-29T07:23:05.575Z,18.00
2023-04-29T07:25:34.183Z,15.33
2023-04-29T07:28:02.228Z,15.33
2023-04-29T07:30:29.182Z,19.50
2023-04-29T07:32:57.112Z,15.00
2023-04-29T07:35:24.919Z,14.67
2023-04-29T07:37:52.011Z,10.50
2023-04-29T07:40:21.331Z,10.40
2023-04-29T07:42:49.072Z,11.33
2023-04-29T07:45:17.050Z,10.67
2023-04-29T07:47:45.704Z,15.33
2023-04-29T07:50:14.601Z,10.60
2023-04-29T07:52:43.326Z,12.60
2023-04-29T07:55:10.345Z,14.00
2023-04-29T07:57:38.484Z,10.33
2023-04-29T08:00:07.972Z,11.00
2023-04-29T08:02:39.185Z,10.80
2023-04-29T08:05:07.462Z,12.67
2023-04-29T08:07:39.606Z,18.00
2023-04-29T08:10:07.138Z,17.00
2023-04-29T08:12:34.904Z,13.33
2023-04-29T08:15:01.809Z,13.00
2023-04-29T08:17:28.719Z,16.00
2023-04-29T08:19:58.397Z,13.83
2023-04-29T08:22:26.369Z,19.00
2023-04-29T08:24:54.468Z,14.33
2023-04-29T08:27:22.520Z,14.00
2023-04-29T08:29:50.407Z,15.00
2023-04-29T08:32:18.445Z,12.00
2023-04-29T08:34:47.491Z,11.40
2023-04-29T08:37:18.458Z,10.33
2023-04-29T08:39:48.125Z,10.20
2023-04-29T08:42:20.847Z,9.33
2023-04-29T08:44:49.491Z,10.50
2023-04-29T08:47:19.787Z,9.00
2023-04-29T08:49:48.584Z,13.40
2023-04-29T08:52:15.547Z,10.00
2023-04-29T08:54:43.164Z,12.67
2023-04-29T08:57:12.920Z,10.40
2023-04-29T08:59:39.798Z,9.50
2023-04-29T09:02:17.309Z,11.00
2023-04-29T09:04:56.693Z,6.00
2023-04-29T09:07:25.186Z,9.00
2023-04-29T09:09:53.721Z,10.00
2023-04-29T09:12:23.236Z,11.83
2023-04-29T09:14:51.317Z,10.33
2023-04-29T09:17:20.062Z,7.50
2023-04-29T09:19:57.226Z,11.00
2023-04-29T09:22:24.088Z,7.50
2023-04-29T09:24:51.041Z,7.00
2023-04-29T09:27:29.888Z,7.80
2023-04-29T09:30:02.013Z,8.00
2023-04-29T09:32:31.332Z,10.80
2023-04-29T09:34:58.060Z,7.50
2023-04-29T09:37:28.362Z,11.00
2023-04-29T09:39:56.613Z,9.00
2023-04-29T09:42:24.967Z,12.33
2023-04-29T09:44:53.375Z,13.00
2023-04-29T09:47:32.025Z,7.50
2023-04-29T09:50:14.021Z,15.00
2023-04-29T09:52:44.683Z,11.33
2023-04-29T09:55:15.487Z,12.60
2023-04-29T09:57:45.984Z,11.20
2023-04-29T10:00:15.147Z,12.00
2023-04-29T10:02:44.030Z,9.67
2023-04-29T10:05:16.990Z,10.20
2023-04-29T10:07:51.385Z,13.33
2023-04-29T10:10:22.000Z,9.20
2023-04-29T10:12:49.745Z,10.00
2023-04-29T10:15:38.880Z,8.20
2023-04-29T10:18:20.563Z,9.67
2023-04-29T10:20:49.008Z,10.00
2023-04-29T10:23:17.877Z,10.00
2023-04-29T10:25:46.798Z,10.00
2023-04-29T10:28:17.120Z,8.60
2023-04-29T10:30:45.331Z,14.00
2023-04-29T10:33:16.596Z,8.67
2023-04-29T10:35:47.610Z,10.33
2023-04-29T10:38:27.271Z,11.33
2023-04-29T10:40:58.404Z,9.67
2023-04-29T10:43:26.981Z,12.00
2023-04-29T10:46:17.912Z,10.20
2023-04-29T10:48:46.913Z,10.67
2023-04-29T10:51:45.247Z,12.67
2023-04-29T10:54:15.704Z,10.40
2023-04-29T10:56:54.601Z,10.40
2023-04-29T10:59:43.313Z,10.67
2023-04-29T11:02:11.319Z,14.00
2023-04-29T11:05:08.719Z,11.33
2023-04-29T11:07:36.377Z,13.67
2023-04-29T11:10:04.932Z,13.67
2023-04-29T11:12:32.631Z,10.33
2023-04-29T11:15:04.077Z,12.33
2023-04-29T11:17:38.578Z,12.00
2023-04-29T11:20:14.335Z,10.60
2023-04-29T11:22:51.370Z,10.33
2023-04-29T11:25:19.222Z,9.00
2023-04-29T11:27:49.760Z,10.00
2023-04-29T11:30:18.648Z,8.00
2023-04-29T11:32:46.114Z,9.00
2023-04-29T11:35:15.098Z,10.00
2023-04-29T11:37:45.584Z,8.00
2023-04-29T11:40:14.294Z,10.33
2023-04-29T11:42:48.200Z,9.60
2023-04-29T11:45:20.995Z,8.00
2023-04-29T11:47:53.295Z,9.00
2023-04-29T11:50:23.154Z,8.33
2023-04-29T11:52:50.941Z,9.00
2023-04-29T11:55:19.705Z,9.67
2023-04-29T11:57:51.274Z,9.80
2023-04-29T12:00:20.412Z,12.20
2023-04-29T12:02:49.218Z,9.40
2023-04-29T12:05:19.828Z,10.80
2023-04-29T12:07:51.156Z,10.00
2023-04-29T12:10:22.397Z,10.33
2023-04-29T12:12:51.226Z,9.60
2023-04-29T12:15:19.171Z,9.00
2023-04-29T12:17:47.384Z,11.00
2023-04-29T12:20:15.985Z,11.33
2023-04-29T12:22:45.039Z,9.80
2023-04-29T12:25:16.501Z,12.50
2023-04-29T12:27:44.175Z,10.00
2023-04-29T12:30:14.378Z,12.17
2023-04-29T12:32:43.045Z,9.60
2023-04-29T12:35:19.367Z,7.20
2023-04-29T12:37:49.862Z,9.20
2023-04-29T12:40:20.791Z,8.60
2023-04-29T12:42:48.807Z,9.00
2023-04-29T12:45:32.280Z,9.60
2023-04-29T12:48:08.682Z,10.00
2023-04-29T12:50:40.118Z,9.67
2023-04-29T12:53:09.597Z,10.33
2023-04-29T12:55:38.686Z,11.00
2023-04-29T12:58:06.443Z,9.00
2023-04-29T13:00:37.731Z,12.00
2023-04-29T13:03:05.810Z,10.00
2023-04-29T13:05:33.736Z,8.67
2023-04-29T13:08:02.905Z,9.80
2023-04-29T13:10:30.536Z,8.67
2023-04-29T13:12:59.761Z,10.40
2023-04-29T13:15:33.520Z,8.60
2023-04-29T13:18:02.678Z,9.67
2023-04-29T13:20:30.320Z,10.33
2023-04-29T13:22:59.180Z,10.60
2023-04-29T13:25:27.431Z,10.00
2023-04-29T13:27:55.465Z,9.00
2023-04-29T13:30:24.559Z,9.80
2023-04-29T13:32:56.719Z,10.00
2023-04-29T13:35:28.557Z,11.40
2023-04-29T13:37:58.106Z,7.00
2023-04-29T13:40:38.247Z,11.00
2023-04-29T13:43:09.686Z,12.00
2023-04-29T13:45:41.266Z,12.00
2023-04-29T13:48:32.437Z,13.00
2023-04-29T13:59:00.569Z,12.33
2023-04-29T14:03:54.913Z,11.00
2023-04-29T14:06:22.598Z,10.00
2023-04-29T14:08:51.602Z,10.60
2023-04-29T14:11:20.426Z,10.80
2023-04-29T14:13:49.125Z,7.00
2023-04-29T14:16:17.593Z,12.00
2023-04-29T14:18:45.364Z,14.00
2023-04-29T14:21:13.956Z,12.67
2023-04-29T14:23:41.514Z,12.33
2023-04-29T14:26:26.433Z,12.00
2023-04-29T14:29:00.256Z,11.67
2023-04-29T14:31:31.914Z,10.83
2023-04-29T14:34:00.876Z,13.00
2023-04-29T14:36:29.038Z,13.00
2023-04-29T14:38:57.721Z,10.80
2023-04-29T14:41:25.689Z,12.00
2023-04-29T14:44:00.970Z,11.83
2023-04-29T14:46:29.655Z,9.00
2023-04-29T14:48:57.383Z,10.67
2023-04-29T14:51:27.139Z,9.00
2023-04-29T14:53:54.837Z,10.33
2023-04-29T14:56:22.442Z,9.00
2023-04-29T14:58:51.195Z,9.60
2023-04-29T15:01:20.680Z,10.50
2023-04-29T15:03:48.653Z,8.67
2023-04-29T15:06:16.691Z,10.00
2023-04-29T15:08:44.537Z,12.00
2023-04-29T15:11:12.226Z,12.33
2023-04-29T15:13:39.919Z,10.33
2023-04-29T15:16:07.986Z,14.00
2023-04-29T15:18:35.935Z,11.00
2023-04-29T15:21:04.901Z,12.67
2023-04-29T15:23:34.114Z,11.33
2023-04-29T15:26:01.673Z,10.00
2023-04-29T15:28:29.724Z,13.67
2023-04-29T15:31:01.680Z,9.67
2023-04-29T15:33:29.697Z,10.33
2023-04-29T15:35:57.971Z,11.00
2023-04-29T15:38:25.694Z,10.00
2023-04-29T15:40:59.562Z,9.33
2023-04-29T15:43:31.638Z,9.33
2023-04-29T15:46:00.188Z,9.67
2023-04-29T15:48:28.181Z,10.33
2023-04-29T15:50:55.874Z,10.67
2023-04-29T15:53:23.671Z,10.67
2023-04-29T15:55:51.295Z,11.33
2023-04-29T15:58:20.108Z,10.40
2023-04-29T16:00:49.249Z,11.60
2023-04-29T16:03:17.124Z,14.33
2023-04-29T16:05:45.082Z,11.67
2023-04-29T16:08:12.872Z,12.33
2023-04-29T16:10:40.386Z,13.33
2023-04-29T16:13:08.390Z,11.00
2023-04-29T16:15:36.906Z,10.00
2023-04-29T16:18:04.461Z,11.67
2023-04-29T16:20:33.780Z,11.20
2023-04-29T16:23:01.913Z,15.00
2023-04-29T16:25:30.070Z,13.00
2023-04-29T16:27:57.902Z,9.00
2023-04-29T16:30:25.480Z,12.67
2023-04-29T16:32:53.262Z,12.00
2023-04-29T16:35:25.942Z,9.00
2023-04-29T16:37:53.690Z,15.67
2023-04-29T16:40:21.857Z,20.00
2023-04-29T16:42:49.952Z,19.50
2023-04-29T16:45:18.381Z,14.00
2023-04-29T16:47:46.043Z,12.67
2023-04-29T16:50:14.577Z,13.67
2023-04-29T16:52:42.747Z,12.67
2023-04-29T16:55:13.103Z,11.33
2023-04-29T16:57:40.827Z,12.67
2023-04-29T17:00:12.463Z,13.00
2023-04-29T17:02:40.669Z,14.00
2023-04-29T17:05:09.237Z,15.67
2023-04-29T17:07:37.354Z,15.33
2023-04-29T17:10:06.758Z,13.00
2023-04-29T17:12:34.726Z,16.00
2023-04-29T17:15:02.663Z,13.67
2023-04-29T17:17:30.461Z,15.67
2023-04-29T17:19:58.502Z,19.67
2023-04-29T17:22:26.686Z,15.50
2023-04-29T17:24:54.715Z,20.67
2023-04-29T17:27:22.262Z,17.00
2023-04-29T17:29:50.130Z,19.33
2023-04-29T17:32:25.562Z,19.67
2023-04-29T17:34:54.186Z,18.33
2023-04-29T17:37:25.137Z,16.50
2023-04-29T17:39:54.172Z,21.50
2023-04-29T17:42:22.307Z,21.00
2023-04-29T17:44:50.613Z,19.00
2023-04-29T17:47:21.247Z,23.67
2023-04-29T17:49:52.162Z,22.00
2023-04-29T17:52:22.778Z,24.67
2023-04-29T17:54:51.337Z,22.33
2023-04-29T17:57:19.990Z,24.00
2023-04-29T17:59:48.769Z,27.33
2023-04-29T18:02:16.692Z,22.67
2023-04-29T18:04:44.565Z,24.33
2023-04-29T18:07:13.402Z,23.00
2023-04-29T18:09:42.422Z,26.33
2023-04-29T18:12:10.678Z,25.00
2023-04-29T18:14:39.352Z,19.33
2023-04-29T18:17:08.204Z,25.67
2023-04-29T18:19:36.805Z,26.67
2023-04-29T18:22:06.453Z,25.33
2023-04-29T18:24:33.484Z,16.00
2023-04-29T18:27:02.495Z,28.33
2023-04-29T18:29:31.103Z,33.33
2023-04-29T18:31:58.941Z,30.00
2023-04-29T18:34:34.489Z,28.00
2023-04-29T18:37:02.296Z,28.67
2023-04-29T18:39:30.997Z,31.33
2023-04-29T18:41:59.191Z,34.00
2023-04-29T18:44:28.097Z,34.00
2023-04-29T18:46:57.379Z,33.33
2023-04-29T18:49:25.255Z,31.67
2023-04-29T18:51:55.589Z,32.00
2023-04-29T18:54:24.682Z,34.00
2023-04-29T18:56:52.683Z,36.00
2023-04-29T18:59:21.302Z,35.00
2023-04-29T19:01:49.304Z,42.00
2023-04-29T19:04:18.251Z,41.33
2023-04-29T19:06:46.297Z,41.00
2023-04-29T19:09:15.035Z,43.00
2023-04-29T19:11:43.695Z,41.33
2023-04-29T19:14:12.248Z,42.33
2023-04-29T19:16:41.237Z,46.00
2023-04-29T19:19:10.057Z,46.67
2023-04-29T19:21:38.057Z,46.00
2023-04-29T19:24:06.780Z,46.67
2023-04-29T19:26:36.502Z,50.00
2023-04-29T19:29:07.436Z,46.67
2023-04-29T19:31:36.246Z,44.33
2023-04-29T19:34:04.965Z,48.33
2023-04-29T19:36:33.265Z,44.67
2023-04-29T19:39:04.563Z,48.00
2023-04-29T19:41:34.922Z,48.00
2023-04-29T19:44:03.909Z,48.00
2023-04-29T19:46:33.331Z,48.00
2023-04-29T19:49:02.459Z,47.67
2023-04-29T19:51:31.234Z,46.00
2023-04-29T19:54:02.239Z,47.00
2023-04-29T19:56:32.265Z,44.00
2023-04-29T19:59:01.062Z,46.33
2023-04-29T20:01:30.247Z,50.00
2023-04-29T20:04:01.669Z,50.67
2023-04-29T20:06:30.705Z,49.67
2023-04-29T20:08:59.339Z,47.33
2023-04-29T20:11:27.998Z,47.00
2023-04-29T20:13:56.569Z,48.67
2023-04-29T20:16:27.808Z,45.33
2023-04-29T20:18:56.403Z,46.33
2023-04-29T20:21:24.076Z,47.67
2023-04-29T20:23:52.823Z,49.00
2023-04-29T20:26:21.511Z,47.00
2023-04-29T20:28:50.255Z,47.67
2023-04-29T20:31:18.809Z,47.33
2023-04-29T20:33:47.384Z,48.33
2023-04-29T20:36:16.940Z,16.33
2023-04-29T20:38:45.344Z,46.00
2023-04-29T20:41:13.951Z,50.00
2023-04-29T20:43:41.660Z,3.75
2023-04-29T20:46:12.346Z,49.33
2023-04-29T20:48:42.821Z,49.00
2023-04-29T20:51:13.504Z,49.00
2023-04-29T20:53:41.400Z,49.00
2023-04-29T20:56:10.787Z,49.00
2023-04-29T20:58:39.518Z,51.00
2023-04-29T21:01:08.410Z,52.67
2023-04-29T21:03:37.087Z,48.00
2023-04-29T21:06:05.885Z,51.33
2023-04-29T21:08:34.640Z,51.00
2023-04-29T21:11:05.383Z,49.67
2023-04-29T21:13:33.940Z,53.67
2023-04-29T21:16:03.118Z,51.00
2023-04-29T21:18:31.764Z,48.33
2023-04-29T21:21:00.640Z,50.67
2023-04-29T21:23:29.347Z,49.67
2023-04-29T21:25:58.096Z,49.33
2023-04-29T21:28:27.082Z,49.67
2023-04-29T21:30:55.922Z,48.00
2023-04-29T21:33:24.964Z,49.00
2023-04-29T21:35:53.922Z,53.00
2023-04-29T21:38:22.509Z,51.33
2023-04-29T21:40:51.621Z,53.67
2023-04-29T21:43:20.542Z,53.00
2023-04-29T21:45:50.182Z,55.67
2023-04-29T21:48:20.800Z,54.67
2023-04-29T21:53:35.610Z,55.00
2023-04-29T21:56:07.853Z,56.00
2023-04-29T21:58:36.688Z,53.00
2023-04-29T22:01:25.591Z,53.00
2023-04-29T22:03:56.115Z,54.33
2023-04-29T22:06:26.085Z,54.00
2023-04-29T22:08:54.989Z,58.00
2023-04-29T22:11:23.796Z,54.50
2023-04-29T22:13:52.477Z,57.67
2023-04-29T22:16:23.555Z,56.33
2023-04-29T22:18:52.819Z,56.33
2023-04-29T22:21:21.584Z,56.00
2023-04-29T22:23:50.514Z,59.00
2023-04-29T22:26:19.274Z,55.00
2023-04-29T22:28:48.025Z,66.33
2023-04-29T22:31:16.637Z,66.33
2023-04-29T22:33:45.474Z,63.00
2023-04-29T22:36:14.381Z,64.00
2023-04-29T22:38:43.105Z,57.67
2023-04-29T22:41:11.930Z,61.00
2023-04-29T22:43:41.012Z,60.67
2023-04-29T22:46:09.802Z,60.00
2023-04-29T22:48:38.539Z,60.00
2023-04-29T22:51:07.321Z,60.67
2023-04-29T22:53:35.996Z,62.00
2023-04-29T22:56:05.495Z,59.00
2023-04-29T22:58:34.417Z,59.67
2023-04-29T23:01:03.214Z,59.00
2023-04-29T23:03:31.899Z,59.67
2023-04-29T23:06:01.330Z,61.00
2023-04-29T23:08:30.198Z,60.00
2023-04-29T23:10:58.902Z,64.00
2023-04-29T23:13:27.743Z,67.67
2023-04-29T23:15:57.529Z,60.67
2023-04-29T23:18:26.263Z,60.33
2023-04-29T23:20:56.325Z,61.67
2023-04-29T23:23:25.251Z,61.33
2023-04-29T23:25:53.986Z,61.00
2023-04-29T23:28:22.808Z,61.00
2023-04-29T23:30:51.681Z,64.33
2023-04-29T23:33:20.581Z,61.00
2023-04-29T23:35:52.550Z,57.00
2023-04-29T23:38:21.133Z,53.33
2023-04-29T23:40:49.722Z,59.33
2023-04-29T23:46:05.770Z,54.67
2023-04-29T23:48:34.370Z,59.67
2023-04-29T23:51:03.058Z,57.00
2023-04-29T23:53:32.112Z,52.67
2023-04-29T23:56:00.844Z,54.33
2023-04-29T23:58:31.125Z,57.00
